Tecumseh, Canada
Current Conditions -  °F | °C
As of 7:00 PM on Tuesday 21 Oct 2014 (Local Time) from CYQG Reporting Station
Overcast Overcast  
Wind Chill: 38°   Ceiling: 1700
Heat Index: 45°   Visibility: 15mi
Dew Point: 39°   Wind: 14mph
Humidity: 81%   Direction: 350°N
Pressure: 30.13"   Gusts: 22mph
Location:  42.32°N, 82.89°W
Report Text: CYQG 212300Z 35012G19KT 15SM OVC017 07/04 A3013 RMK SC8 SLP205
Loading
Personal Weather Stations






























Interactive Weather Map New forecast layout! Learn more

10-Day Weather Forecast

Advertisements
Track Severe Weather on mobile